• Join FlightAware (Why Join?)
  • Login
  • US Flag 
03:27AM EDT


 

Airport Tracker/Info


-or-


 

Live Flight TrackerFlight Track Log ✈ SKW4664 ✈ 16-Jul-2013 ✈ KMSP - KFSD

Flight Track Log - Related Links

Times and Time Zones

All times are in EDT time to prevent confusion due to time zone crossing. See the SKW4664 flight status page for this flight to view local times or setup timezone preferences in your user account.

Time Position Orientation Groundspeed Altitude Reporting Facility
EDT Latitude Longitude Course Direction KTS MPH feet Rate Location/Type
10:36AM 44.8500 -93.2333 235° Southwest 159 183 2,000  Level Minneapolis TRACON
10:37AM 44.8050 -93.2403 186° South 191 220 3,300 1,620 Climbing Minneapolis Center
10:38AM 44.7533 -93.2858 212° Southwest 230 265 5,000 1,860 Climbing Minneapolis Center
10:39AM 44.6352 -93.7297 235° Southwest  Level FlightAware Approximate
10:39AM 44.7156 -93.3681 237° Southwest 262 302 7,600  Level Minneapolis Center
10:40AM 44.5652 -93.8525 230° Southwest  Level FlightAware Approximate
10:40AM 44.6839 -93.4825 249° West 263 303 10,400  Level Minneapolis Center
10:41AM 44.4951 -93.9766 235° Southwest  Level FlightAware Approximate
10:41AM 44.6483 -93.6111 249° West 294 338 12,500  Level Minneapolis Center
10:42AM 44.6167 -93.7236 248° West 307 353 14,500 1,740 Climbing Minneapolis Center
10:43AM 44.5844 -93.8350 248° West 310 357 16,100 1,380 Climbing Minneapolis Center
10:44AM 44.5339 -93.9358 235° Southwest 317 365 17,400 1,080 Climbing Minneapolis Center
10:45AM 44.4811 -94.0386 234° Southwest 325 374 18,400 1,020 Climbing Minneapolis Center
10:46AM 44.4264 -94.1419 233° Southwest 329 379 19,600 1,140 Climbing Minneapolis Center
10:48AM 44.3594 -94.2686 234° Southwest 338 389 21,100 1,080 Climbing Minneapolis Center
10:49AM 44.2933 -94.3956 234° Southwest 338 389 22,200 960 Climbing Minneapolis Center
10:50AM 44.2361 -94.5036 234° Southwest 346 398 23,100 840 Climbing Minneapolis Center
10:51AM 44.1972 -94.6492 250° West 352 405 24,000 420 Climbing Minneapolis Center
10:52AM 44.1594 -94.7786 248° West 358 412 24,000  Level Minneapolis Center
10:53AM 44.1236 -94.9061 249° West 355 409 24,000  Level Minneapolis Center
10:54AM 44.0875 -95.0325 248° West 354 407 24,000  Level Minneapolis Center
10:55AM 44.0517 -95.1594 249° West 352 405 24,000  Level Minneapolis Center
10:56AM 44.0150 -95.2850 248° West 351 404 24,000  Level Minneapolis Center
10:57AM 43.9789 -95.4100 248° West 349 402 24,000 -1,020 Level Minneapolis Center
10:58AM 43.9347 -95.5617 248° West 352 405 21,900 -2,280 Descending Minneapolis Center
10:59AM 43.8981 -95.6856 248° West 348 400 19,300 -2,340 Descending Minneapolis Center
11:00AM 43.8575 -95.8028 244° Southwest 338 389 17,100 -2,280 Descending Minneapolis Center
11:01AM 43.8056 -95.9078 236° Southwest 330 380 14,600 -2,460 Descending Minneapolis Center
11:02AM 43.7556 -96.0100 236° Southwest 322 371 12,100 -2,280 Descending Minneapolis Center
11:03AM 43.7067 -96.1108 236° Southwest 317 365 9,900 -2,040 Descending Minneapolis Center
11:04AM 43.6964 -96.2408 264° West 289 333 8,000 -1,740 Descending Minneapolis Center
11:05AM 43.6881 -96.3411 263° West 276 318 6,400 -1,440 Descending Minneapolis Center
11:06AM 43.6792 -96.4353 263° West 263 303 5,100 -1,140 Descending Minneapolis Center
11:07AM 43.6719 -96.5211 263° West 246 283 4,100 -840 Descending Minneapolis Center
11:08AM 43.6661 -96.5956 264° West 222 255 3,400 -720 Descending Minneapolis Center